Time;durP1;ratioP1;P1;durP2;ratioP2;P2;SDS_P1;SDS_P2;PMS_P1;PMS_P2;Temp;Humidity;BMP_temperature;BMP_pressure;BME280_temperature;BME280_humidity;BME280_pressure;Samples;Min_cycle;Max_cycle;Signal;HPM_P1;HPM_P2
2023/09/19 00:03:57;;;;;;;10.60;5.15;;;;;;;;;;10342406;28;20464;-85
2023/09/19 00:09:00;;;;;;;8.45;4.80;;;;;;;;;;10355995;28;20407;-85
2023/09/19 00:14:04;;;;;;;8.93;5.43;;;;;;;;;;10344058;28;20458;-85
2023/09/19 00:19:08;;;;;;;7.25;4.63;;;;;;;;;;10340680;28;20412;-86
2023/09/19 00:24:11;;;;;;;9.65;5.50;;;;;;;;;;10346720;28;20765;-85
2023/09/19 00:29:16;;;;;;;10.23;5.43;;;;;;;;;;10344710;28;20469;-85
2023/09/19 00:34:18;;;;;;;7.75;4.95;;;;;;;;;;10340434;28;20463;-85
2023/09/19 00:39:21;;;;;;;13.30;6.38;;;;;;;;;;10336700;28;20413;-85
2023/09/19 00:44:26;;;;;;;10.80;6.63;;;;;;;;;;10337394;28;20463;-85
2023/09/19 00:49:30;;;;;;;9.40;5.90;;;;;;;;;;10339473;28;20452;-86
2023/09/19 00:54:33;;;;;;;14.37;7.53;;;;;;;;;;10339670;28;20847;-86
2023/09/19 00:59:37;;;;;;;12.90;7.18;;;;;;;;;;10339215;28;20397;-84
2023/09/19 01:04:40;;;;;;;15.68;7.32;;;;;;;;;;10345994;28;20409;-85
2023/09/19 01:09:43;;;;;;;13.88;7.55;;;;;;;;;;10350146;28;20474;-85
2023/09/19 01:14:59;;;;;;;15.10;7.53;;;;;;;;;;10341290;28;20402;-85
2023/09/19 01:20:16;;;;;;;12.65;7.70;;;;;;;;;;10334990;28;20487;-86
2023/09/19 01:25:52;;;;;;;12.13;8.32;;;;;;;;;;10338305;28;20409;-85
2023/09/19 01:30:59;;;;;;;14.85;8.23;;;;;;;;;;10337116;28;20401;-85
2023/09/19 01:36:03;;;;;;;12.00;7.20;;;;;;;;;;10342211;28;20447;-86
2023/09/19 01:41:15;;;;;;;13.05;8.10;;;;;;;;;;10341592;28;20416;-85
2023/09/19 01:46:26;;;;;;;15.35;8.25;;;;;;;;;;10334898;28;20441;-86
2023/09/19 01:51:35;;;;;;;14.05;8.82;;;;;;;;;;10339084;28;20409;-86
2023/09/19 01:56:43;;;;;;;12.93;8.00;;;;;;;;;;10332635;28;20460;-86
2023/09/19 02:01:47;;;;;;;14.05;8.25;;;;;;;;;;10339417;28;20464;-85
2023/09/19 02:06:51;;;;;;;16.67;7.63;;;;;;;;;;10340059;28;20421;-86
2023/09/19 02:11:55;;;;;;;13.13;7.22;;;;;;;;;;10343830;28;20395;-86
2023/09/19 02:16:59;;;;;;;14.00;7.80;;;;;;;;;;10340519;28;20416;-85
2023/09/19 02:22:07;;;;;;;15.02;8.18;;;;;;;;;;10343905;28;20921;-85
2023/09/19 02:27:12;;;;;;;12.00;7.53;;;;;;;;;;10325044;28;20414;-85
2023/09/19 02:32:17;;;;;;;11.68;6.78;;;;;;;;;;10333573;28;20968;-85
2023/09/19 02:37:20;;;;;;;11.40;7.07;;;;;;;;;;10344264;28;20413;-86
2023/09/19 02:42:22;;;;;;;12.75;7.10;;;;;;;;;;10333530;28;20516;-85
2023/09/19 02:47:28;;;;;;;10.20;6.45;;;;;;;;;;10338698;28;20417;-85
2023/09/19 02:52:30;;;;;;;12.03;7.27;;;;;;;;;;10332566;28;20444;-85
2023/09/19 02:57:34;;;;;;;9.93;6.80;;;;;;;;;;10336516;28;20409;-86
2023/09/19 03:02:39;;;;;;;12.48;6.80;;;;;;;;;;10340277;28;20424;-85
2023/09/19 03:07:42;;;;;;;14.97;7.03;;;;;;;;;;10347793;28;21011;-85
2023/09/19 03:12:45;;;;;;;12.07;7.43;;;;;;;;;;10354404;28;20891;-86
2023/09/19 03:17:50;;;;;;;11.80;6.45;;;;;;;;;;10336141;28;20415;-86
2023/09/19 03:22:52;;;;;;;11.95;7.40;;;;;;;;;;10341586;28;20425;-85
2023/09/19 03:27:57;;;;;;;13.50;6.25;;;;;;;;;;10343196;28;20510;-85
2023/09/19 03:33:01;;;;;;;10.85;7.43;;;;;;;;;;10347561;28;20467;-85
2023/09/19 03:38:04;;;;;;;14.55;7.80;;;;;;;;;;10349950;28;20511;-85
2023/09/19 03:43:07;;;;;;;12.37;7.30;;;;;;;;;;10343250;28;20484;-85
2023/09/19 03:48:11;;;;;;;14.38;8.10;;;;;;;;;;10347021;28;20459;-84
2023/09/19 03:53:13;;;;;;;12.60;7.70;;;;;;;;;;10348326;28;20574;-85
2023/09/19 03:58:16;;;;;;;15.48;7.30;;;;;;;;;;10344788;28;20434;-85
2023/09/19 04:03:20;;;;;;;14.40;8.00;;;;;;;;;;10339261;28;20428;-85
2023/09/19 04:08:23;;;;;;;12.90;7.55;;;;;;;;;;10353261;28;20412;-85
2023/09/19 04:13:25;;;;;;;13.60;8.20;;;;;;;;;;10358576;28;20475;-86
2023/09/19 04:18:30;;;;;;;11.27;7.70;;;;;;;;;;10341967;28;20492;-85
2023/09/19 04:23:33;;;;;;;10.20;6.90;;;;;;;;;;10337776;28;20458;-84
2023/09/19 04:28:38;;;;;;;15.90;7.40;;;;;;;;;;10345105;28;20413;-84
2023/09/19 04:33:43;;;;;;;12.93;7.70;;;;;;;;;;10347056;28;20435;-85
2023/09/19 04:38:46;;;;;;;14.55;8.07;;;;;;;;;;10341901;28;20407;-85
2023/09/19 04:43:49;;;;;;;14.27;9.07;;;;;;;;;;10336077;28;20458;-85
2023/09/19 04:48:53;;;;;;;13.63;8.05;;;;;;;;;;10339238;28;20411;-85
2023/09/19 04:53:56;;;;;;;13.43;7.63;;;;;;;;;;10339447;28;20409;-85
2023/09/19 04:58:58;;;;;;;11.13;7.10;;;;;;;;;;10344112;28;20419;-85
2023/09/19 05:04:04;;;;;;;10.47;6.90;;;;;;;;;;10337056;28;21000;-85
2023/09/19 05:09:08;;;;;;;10.80;6.35;;;;;;;;;;10345557;28;20403;-85
2023/09/19 05:14:11;;;;;;;11.63;6.30;;;;;;;;;;10350545;28;20461;-85
2023/09/19 05:19:15;;;;;;;11.60;6.88;;;;;;;;;;10342524;28;20462;-85
2023/09/19 05:24:17;;;;;;;11.32;5.97;;;;;;;;;;10342021;28;20993;-85
2023/09/19 05:29:20;;;;;;;10.23;5.95;;;;;;;;;;10336503;28;20409;-85
2023/09/19 05:34:25;;;;;;;13.27;6.07;;;;;;;;;;10334474;28;20971;-85
2023/09/19 05:39:27;;;;;;;11.23;5.53;;;;;;;;;;10335386;28;20544;-85
2023/09/19 05:44:29;;;;;;;10.95;5.78;;;;;;;;;;10333698;28;20908;-85
2023/09/19 05:49:33;;;;;;;11.85;5.60;;;;;;;;;;10332631;28;20429;-86
2023/09/19 05:54:37;;;;;;;9.13;5.53;;;;;;;;;;10332121;28;20441;-85
2023/09/19 05:59:42;;;;;;;11.43;6.25;;;;;;;;;;10336903;28;20421;-84
2023/09/19 06:04:46;;;;;;;12.20;5.93;;;;;;;;;;10336068;28;20460;-85
2023/09/19 06:09:49;;;;;;;9.40;5.60;;;;;;;;;;10346304;28;20715;-86
2023/09/19 06:14:52;;;;;;;10.77;6.40;;;;;;;;;;10346857;28;20477;-85
2023/09/19 06:19:56;;;;;;;12.77;6.17;;;;;;;;;;10336345;28;20410;-85
2023/09/19 06:24:58;;;;;;;10.93;6.07;;;;;;;;;;10335775;28;20507;-87
2023/09/19 06:30:01;;;;;;;12.85;6.53;;;;;;;;;;10344011;28;20417;-85
2023/09/19 06:35:07;;;;;;;10.75;6.78;;;;;;;;;;10336969;28;20397;-85
2023/09/19 06:40:13;;;;;;;10.60;7.03;;;;;;;;;;10339536;28;20422;-85
2023/09/19 06:45:18;;;;;;;14.43;7.20;;;;;;;;;;10338952;28;20433;-85
2023/09/19 06:50:23;;;;;;;13.03;7.63;;;;;;;;;;10338754;28;20953;-85
2023/09/19 06:55:27;;;;;;;13.52;7.40;;;;;;;;;;10335904;28;20415;-86
2023/09/19 07:00:32;;;;;;;12.98;8.10;;;;;;;;;;10343735;28;20469;-85
2023/09/19 07:05:37;;;;;;;13.80;9.10;;;;;;;;;;10348474;28;20437;-85
2023/09/19 07:10:40;;;;;;;14.85;8.75;;;;;;;;;;10348049;28;20408;-85
2023/09/19 07:15:46;;;;;;;15.43;8.43;;;;;;;;;;10355878;28;20417;-85
2023/09/19 07:20:50;;;;;;;16.10;9.10;;;;;;;;;;10349723;28;20408;-85
2023/09/19 07:25:52;;;;;;;11.73;8.47;;;;;;;;;;10342771;28;20455;-86
2023/09/19 07:30:55;;;;;;;15.15;8.45;;;;;;;;;;10343581;28;20407;-86
2023/09/19 07:35:59;;;;;;;16.42;9.70;;;;;;;;;;10344388;28;20403;-86
2023/09/19 07:41:02;;;;;;;13.73;9.30;;;;;;;;;;10342221;28;20440;-86
2023/09/19 07:46:06;;;;;;;14.50;9.40;;;;;;;;;;10341410;28;20472;-86
2023/09/19 07:51:10;;;;;;;18.05;9.82;;;;;;;;;;10342425;28;20421;-86
2023/09/19 07:56:13;;;;;;;15.75;9.23;;;;;;;;;;10341217;28;20405;-86
2023/09/19 08:01:16;;;;;;;15.18;9.02;;;;;;;;;;10342418;28;20416;-86
2023/09/19 08:06:20;;;;;;;17.08;9.40;;;;;;;;;;10342945;28;20758;-85
2023/09/19 08:11:24;;;;;;;18.40;9.70;;;;;;;;;;10337533;28;20404;-86
2023/09/19 08:16:26;;;;;;;12.73;8.20;;;;;;;;;;10340486;28;20415;-86
2023/09/19 08:21:30;;;;;;;15.48;9.65;;;;;;;;;;10356789;28;20423;-86
2023/09/19 08:26:33;;;;;;;17.38;9.57;;;;;;;;;;10345841;28;21087;-87
2023/09/19 08:31:35;;;;;;;12.75;8.55;;;;;;;;;;10330757;28;20935;-86
2023/09/19 08:36:41;;;;;;;15.25;9.82;;;;;;;;;;10329196;28;20475;-86
2023/09/19 08:41:43;;;;;;;20.88;8.77;;;;;;;;;;10343333;28;20503;-86
2023/09/19 08:46:47;;;;;;;19.77;9.43;;;;;;;;;;10345048;28;20824;-86
2023/09/19 08:51:59;;;;;;;13.80;8.93;;;;;;;;;;10344093;28;20415;-87
2023/09/19 08:57:07;;;;;;;12.02;7.47;;;;;;;;;;10337242;28;20448;-86
2023/09/19 09:02:13;;;;;;;13.35;7.45;;;;;;;;;;10322559;28;20522;-86
2023/09/19 09:07:18;;;;;;;13.00;7.20;;;;;;;;;;10346851;28;20412;-86
2023/09/19 09:12:22;;;;;;;10.85;5.90;;;;;;;;;;10337422;28;20440;-86
2023/09/19 09:17:24;;;;;;;4.78;3.05;;;;;;;;;;10339714;28;20433;-85
2023/09/19 09:22:28;;;;;;;5.00;2.67;;;;;;;;;;10336762;28;20464;-86
2023/09/19 09:27:31;;;;;;;6.28;2.90;;;;;;;;;;10344313;28;20824;-86
2023/09/19 09:32:36;;;;;;;10.18;5.63;;;;;;;;;;10340857;28;20409;-86
2023/09/19 09:37:47;;;;;;;10.00;5.72;;;;;;;;;;10341039;28;20463;-86
2023/09/19 09:42:58;;;;;;;8.65;5.43;;;;;;;;;;10341671;28;20453;-86
2023/09/19 09:48:03;;;;;;;9.90;6.15;;;;;;;;;;10341107;28;20403;-86
2023/09/19 09:53:21;;;;;;;11.52;5.45;;;;;;;;;;10344839;28;20903;-86
2023/09/19 09:58:28;;;;;;;10.50;4.80;;;;;;;;;;10335721;28;20413;-86
2023/09/19 10:03:38;;;;;;;8.68;5.57;;;;;;;;;;10339814;28;20464;-86
2023/09/19 10:09:02;;;;;;;9.52;5.63;;;;;;;;;;10343079;28;20411;-86
2023/09/19 10:14:09;;;;;;;9.65;5.15;;;;;;;;;;10339556;28;20885;-86
2023/09/19 10:19:17;;;;;;;8.57;5.15;;;;;;;;;;10334332;28;20495;-86
2023/09/19 10:24:24;;;;;;;7.80;3.58;;;;;;;;;;10336486;28;20430;-86
2023/09/19 10:29:31;;;;;;;7.10;3.72;;;;;;;;;;10337192;28;20405;-86
2023/09/19 10:34:36;;;;;;;7.80;3.90;;;;;;;;;;10340546;28;20960;-87
2023/09/19 10:39:41;;;;;;;6.35;3.55;;;;;;;;;;10354228;28;20450;-86
2023/09/19 10:44:46;;;;;;;5.70;3.13;;;;;;;;;;10350143;28;20526;-86
2023/09/19 10:49:48;;;;;;;6.50;3.80;;;;;;;;;;10342973;28;20952;-86
2023/09/19 10:54:58;;;;;;;5.90;2.88;;;;;;;;;;10342680;28;20442;-86
2023/09/19 11:00:21;;;;;;;7.25;3.10;;;;;;;;;;10349641;28;20413;-86
2023/09/19 11:05:23;;;;;;;7.72;2.80;;;;;;;;;;10346559;28;20525;-86
2023/09/19 11:10:50;;;;;;;8.25;3.53;;;;;;;;;;10349997;28;20403;-86
2023/09/19 11:16:19;;;;;;;6.15;3.28;;;;;;;;;;10345860;28;20901;-86
2023/09/19 11:21:54;;;;;;;6.73;3.47;;;;;;;;;;10335161;28;20489;-87
2023/09/19 11:27:12;;;;;;;5.88;3.08;;;;;;;;;;10329788;28;20494;-86
2023/09/19 11:32:17;;;;;;;7.60;3.40;;;;;;;;;;10327747;28;20450;-87
2023/09/19 11:38:10;;;;;;;7.38;3.70;;;;;;;;;;10326164;28;20438;-85
2023/09/19 11:43:35;;;;;;;7.05;4.55;;;;;;;;;;10325671;28;20420;-86
2023/09/19 11:48:41;;;;;;;4.38;3.47;;;;;;;;;;10325031;28;20899;-86
2023/09/19 11:53:44;;;;;;;7.93;3.83;;;;;;;;;;10311688;28;20440;-86
2023/09/19 11:58:53;;;;;;;5.83;3.07;;;;;;;;;;10320102;28;20456;-87
2023/09/19 12:03:58;;;;;;;8.52;4.20;;;;;;;;;;10320721;28;20458;-86
2023/09/19 12:09:00;;;;;;;5.40;3.28;;;;;;;;;;10310591;28;20428;-86
2023/09/19 12:14:04;;;;;;;6.18;2.67;;;;;;;;;;10330152;28;20763;-87
2023/09/19 12:19:20;;;;;;;6.33;2.93;;;;;;;;;;10321624;28;20460;-86
2023/09/19 12:24:26;;;;;;;5.30;3.30;;;;;;;;;;10328294;28;20495;-87
2023/09/19 12:29:31;;;;;;;7.38;3.70;;;;;;;;;;10327110;28;20510;-86
2023/09/19 12:34:35;;;;;;;6.57;4.00;;;;;;;;;;10316770;28;20507;-86
2023/09/19 12:39:38;;;;;;;7.47;3.30;;;;;;;;;;10329457;28;20460;-86
2023/09/19 12:44:44;;;;;;;7.13;3.60;;;;;;;;;;10324756;28;20455;-87
2023/09/19 12:50:13;;;;;;;8.35;3.40;;;;;;;;;;10328680;28;20445;-86
2023/09/19 12:55:23;;;;;;;11.70;3.90;;;;;;;;;;10324474;28;20509;-86
2023/09/19 13:00:35;;;;;;;10.50;3.42;;;;;;;;;;10339100;28;20846;-86
2023/09/19 13:05:51;;;;;;;8.10;3.45;;;;;;;;;;10325070;28;20901;-87
2023/09/19 13:11:21;;;;;;;8.35;4.13;;;;;;;;;;10317456;28;21048;-86
2023/09/19 13:16:25;;;;;;;7.00;3.63;;;;;;;;;;10334341;28;20411;-87
2023/09/19 13:21:36;;;;;;;8.37;3.90;;;;;;;;;;10294764;28;20546;-87
2023/09/19 13:26:40;;;;;;;7.97;3.60;;;;;;;;;;10289777;28;20532;-87
2023/09/19 13:31:47;;;;;;;5.00;2.50;;;;;;;;;;10299610;28;20453;-87
2023/09/19 13:36:49;;;;;;;6.67;2.20;;;;;;;;;;10293743;28;20489;-86
2023/09/19 13:41:51;;;;;;;7.23;2.50;;;;;;;;;;10286696;28;20467;-87
2023/09/19 13:46:56;;;;;;;6.50;2.20;;;;;;;;;;10296118;28;20433;-86
2023/09/19 13:52:01;;;;;;;6.07;2.90;;;;;;;;;;10278455;28;20938;-86
2023/09/19 13:57:05;;;;;;;5.70;3.07;;;;;;;;;;10284491;28;21042;-86
2023/09/19 14:02:09;;;;;;;5.70;2.78;;;;;;;;;;10281322;28;20513;-86
2023/09/19 14:07:12;;;;;;;9.30;3.08;;;;;;;;;;10280016;28;20505;-86
2023/09/19 14:12:15;;;;;;;7.97;3.03;;;;;;;;;;10287891;28;20748;-86
2023/09/19 14:17:19;;;;;;;7.28;3.10;;;;;;;;;;10293801;28;20502;-86
2023/09/19 14:22:21;;;;;;;10.70;3.33;;;;;;;;;;10332702;28;20440;-86
2023/09/19 14:27:25;;;;;;;8.77;3.17;;;;;;;;;;10336178;28;20458;-85
2023/09/19 14:32:28;;;;;;;7.38;3.72;;;;;;;;;;10329113;28;20516;-86
2023/09/19 14:37:31;;;;;;;7.60;2.80;;;;;;;;;;10336586;28;20409;-86
2023/09/19 14:42:35;;;;;;;7.00;3.10;;;;;;;;;;10343832;28;20501;-86
2023/09/19 14:47:39;;;;;;;6.80;2.90;;;;;;;;;;10335964;28;20444;-86
2023/09/19 14:52:44;;;;;;;7.15;2.80;;;;;;;;;;10333959;28;21002;-85
2023/09/19 14:57:51;;;;;;;9.65;2.47;;;;;;;;;;10329455;28;20467;-85
2023/09/19 15:02:55;;;;;;;8.63;2.20;;;;;;;;;;10331887;28;21297;-86
2023/09/19 15:07:58;;;;;;;5.93;1.80;;;;;;;;;;10330859;28;20468;-85
2023/09/19 15:13:00;;;;;;;5.32;1.75;;;;;;;;;;10328636;28;20405;-85
2023/09/19 15:18:07;;;;;;;2.90;1.60;;;;;;;;;;10320724;28;20452;-85
2023/09/19 15:23:12;;;;;;;5.97;1.98;;;;;;;;;;10328558;28;20469;-87
2023/09/19 15:28:14;;;;;;;8.25;2.35;;;;;;;;;;10346570;28;20507;-86
2023/09/19 15:33:18;;;;;;;4.80;2.30;;;;;;;;;;10330428;28;20450;-86
2023/09/19 15:39:01;;;;;;;7.55;2.65;;;;;;;;;;10331912;28;20959;-86
2023/09/19 15:44:05;;;;;;;5.70;2.60;;;;;;;;;;10330991;28;20526;-84
2023/09/19 15:49:09;;;;;;;6.68;2.20;;;;;;;;;;10323065;28;20511;-85
2023/09/19 15:54:14;;;;;;;5.05;2.35;;;;;;;;;;10325832;28;20446;-85
2023/09/19 15:59:16;;;;;;;6.80;2.10;;;;;;;;;;10326828;28;20514;-85
2023/09/19 16:04:24;;;;;;;5.25;2.65;;;;;;;;;;10326374;28;20995;-86
2023/09/19 16:09:26;;;;;;;6.50;2.35;;;;;;;;;;10335550;28;20882;-87
2023/09/19 16:14:30;;;;;;;8.13;2.57;;;;;;;;;;10329080;28;20921;-85
2023/09/19 16:19:34;;;;;;;6.38;2.35;;;;;;;;;;10332356;28;20413;-86
2023/09/19 16:24:36;;;;;;;5.37;2.20;;;;;;;;;;10334686;28;20452;-86
2023/09/19 16:29:39;;;;;;;6.82;2.15;;;;;;;;;;10334019;28;20456;-86
2023/09/19 16:34:42;;;;;;;10.80;2.47;;;;;;;;;;10330575;28;20923;-85
2023/09/19 16:39:45;;;;;;;7.27;2.53;;;;;;;;;;10322142;28;20443;-86
2023/09/19 16:44:47;;;;;;;6.10;2.47;;;;;;;;;;10327811;28;20919;-85
2023/09/19 16:49:52;;;;;;;4.88;2.17;;;;;;;;;;10327053;28;20449;-86
2023/09/19 16:54:55;;;;;;;6.25;2.55;;;;;;;;;;10328509;28;20433;-86
2023/09/19 16:59:57;;;;;;;7.53;2.45;;;;;;;;;;10329018;28;20873;-86
2023/09/19 17:05:01;;;;;;;7.63;2.87;;;;;;;;;;10317568;28;20460;-85
2023/09/19 17:10:05;;;;;;;7.63;3.13;;;;;;;;;;10332337;28;20768;-86
2023/09/19 17:15:08;;;;;;;7.28;3.33;;;;;;;;;;10326489;28;20917;-85
2023/09/19 17:20:12;;;;;;;7.40;2.75;;;;;;;;;;10328224;28;20951;-87
2023/09/19 17:25:16;;;;;;;8.52;3.30;;;;;;;;;;10334521;28;20488;-85
2023/09/19 17:30:19;;;;;;;8.35;3.20;;;;;;;;;;10332560;28;20537;-85
2023/09/19 17:35:24;;;;;;;8.53;3.67;;;;;;;;;;10331820;28;20594;-84
2023/09/19 17:40:26;;;;;;;7.07;3.35;;;;;;;;;;10331255;28;20509;-86
2023/09/19 17:45:28;;;;;;;7.53;3.20;;;;;;;;;;10316922;28;20485;-85
2023/09/19 17:50:32;;;;;;;10.00;3.70;;;;;;;;;;10326028;28;21145;-86
2023/09/19 17:55:38;;;;;;;7.38;3.30;;;;;;;;;;10325418;28;20447;-85
2023/09/19 18:00:41;;;;;;;9.57;3.45;;;;;;;;;;10338547;28;20483;-85
2023/09/19 18:05:46;;;;;;;6.40;3.58;;;;;;;;;;10331638;28;20461;-85
2023/09/19 18:10:48;;;;;;;7.00;3.40;;;;;;;;;;10330302;28;20429;-84
2023/09/19 18:15:51;;;;;;;8.90;3.65;;;;;;;;;;10329081;28;20936;-85
2023/09/19 18:20:55;;;;;;;9.40;3.33;;;;;;;;;;10333345;28;20427;-84
2023/09/19 18:25:57;;;;;;;8.68;4.68;;;;;;;;;;10330346;28;20491;-84
2023/09/19 18:31:06;;;;;;;10.00;4.23;;;;;;;;;;10332598;28;20427;-85
2023/09/19 18:36:10;;;;;;;8.73;4.40;;;;;;;;;;10327474;28;20417;-85
2023/09/19 18:41:18;;;;;;;12.70;4.63;;;;;;;;;;10334223;28;20504;-85
2023/09/19 18:46:20;;;;;;;10.73;4.40;;;;;;;;;;10326499;28;20468;-84
2023/09/19 18:51:25;;;;;;;10.80;4.77;;;;;;;;;;10320031;28;20478;-85
2023/09/19 18:56:27;;;;;;;10.82;4.43;;;;;;;;;;10316375;28;20411;-84
2023/09/19 19:01:30;;;;;;;7.97;4.33;;;;;;;;;;10339651;28;20456;-84
2023/09/19 19:06:34;;;;;;;8.73;3.92;;;;;;;;;;10335812;28;20908;-85
2023/09/19 19:11:36;;;;;;;8.60;4.30;;;;;;;;;;10344578;28;20419;-84
2023/09/19 19:16:39;;;;;;;8.50;4.80;;;;;;;;;;10343843;28;20946;-84
2023/09/19 19:21:43;;;;;;;10.30;4.25;;;;;;;;;;10330505;28;20829;-84
2023/09/19 19:26:46;;;;;;;8.43;4.18;;;;;;;;;;10334919;28;20487;-85
2023/09/19 19:31:50;;;;;;;10.60;4.57;;;;;;;;;;10335922;28;20936;-85
2023/09/19 19:36:54;;;;;;;7.63;4.20;;;;;;;;;;10330943;28;20480;-85
2023/09/19 19:41:58;;;;;;;9.88;4.43;;;;;;;;;;10334824;28;20503;-85
2023/09/19 19:47:01;;;;;;;7.50;4.13;;;;;;;;;;10334464;28;20505;-84
2023/09/19 19:52:06;;;;;;;9.00;4.40;;;;;;;;;;10336530;28;20449;-84
2023/09/19 19:57:08;;;;;;;8.80;4.20;;;;;;;;;;10343508;28;20422;-85
2023/09/19 20:02:11;;;;;;;8.30;4.57;;;;;;;;;;10337870;28;20425;-85
2023/09/19 20:07:14;;;;;;;6.25;4.18;;;;;;;;;;10329281;28;20503;-84
2023/09/19 20:12:17;;;;;;;6.32;3.95;;;;;;;;;;10331206;28;20409;-84
2023/09/19 20:17:19;;;;;;;10.02;3.88;;;;;;;;;;10333397;28;20460;-84
2023/09/19 20:22:24;;;;;;;10.30;4.50;;;;;;;;;;10330825;28;20405;-84
2023/09/19 20:27:26;;;;;;;10.82;4.53;;;;;;;;;;10334361;28;20450;-85
2023/09/19 20:32:29;;;;;;;11.02;4.78;;;;;;;;;;10338823;28;20425;-84
2023/09/19 20:37:33;;;;;;;11.75;5.15;;;;;;;;;;10325480;28;20987;-83
2023/09/19 20:42:35;;;;;;;10.70;4.97;;;;;;;;;;10320550;28;20439;-81
2023/09/19 20:47:37;;;;;;;9.13;4.73;;;;;;;;;;10326943;28;20462;-83
2023/09/19 20:52:41;;;;;;;8.93;4.38;;;;;;;;;;10328944;28;20460;-82
2023/09/19 20:57:46;;;;;;;8.00;4.93;;;;;;;;;;10326278;28;20460;-82
2023/09/19 21:02:49;;;;;;;9.27;5.57;;;;;;;;;;10323003;28;20506;-82
2023/09/19 21:07:53;;;;;;;8.63;5.60;;;;;;;;;;10328423;28;20519;-82
2023/09/19 21:12:56;;;;;;;11.98;5.45;;;;;;;;;;10328785;28;20447;-82
2023/09/19 21:17:58;;;;;;;9.55;5.43;;;;;;;;;;10320844;28;20472;-82
2023/09/19 21:23:06;;;;;;;8.73;4.87;;;;;;;;;;10322360;28;20427;-82
2023/09/19 21:28:09;;;;;;;9.93;4.90;;;;;;;;;;10317776;28;20457;-82
2023/09/19 21:33:14;;;;;;;9.55;5.00;;;;;;;;;;10321278;28;20487;-82
2023/09/19 21:38:18;;;;;;;8.25;4.43;;;;;;;;;;10325900;28;20424;-83
2023/09/19 21:43:21;;;;;;;8.35;4.32;;;;;;;;;;10320297;28;20440;-82
2023/09/19 21:48:23;;;;;;;11.07;4.60;;;;;;;;;;10330435;28;20538;-84
2023/09/19 21:53:27;;;;;;;7.60;4.50;;;;;;;;;;10338659;28;20440;-83
2023/09/19 21:58:31;;;;;;;10.63;4.50;;;;;;;;;;10336304;28;20505;-84
2023/09/19 22:03:36;;;;;;;9.98;4.50;;;;;;;;;;10333090;28;20413;-84
2023/09/19 22:08:39;;;;;;;7.97;4.82;;;;;;;;;;10337273;28;20464;-82
2023/09/19 22:13:43;;;;;;;8.38;4.32;;;;;;;;;;10334058;28;20448;-83
2023/09/19 22:18:46;;;;;;;8.43;5.03;;;;;;;;;;10338967;28;20474;-85
2023/09/19 22:23:52;;;;;;;8.27;4.55;;;;;;;;;;10334971;28;20425;-84
2023/09/19 22:28:56;;;;;;;9.83;5.33;;;;;;;;;;10336003;28;20452;-85
2023/09/19 22:33:59;;;;;;;7.30;5.22;;;;;;;;;;10335448;28;20495;-84
2023/09/19 22:39:03;;;;;;;8.17;4.53;;;;;;;;;;10338636;28;20417;-85
2023/09/19 22:44:07;;;;;;;8.60;4.30;;;;;;;;;;10338064;28;20412;-85
2023/09/19 22:49:16;;;;;;;7.13;3.90;;;;;;;;;;10334457;28;20850;-85
2023/09/19 22:54:25;;;;;;;7.72;4.30;;;;;;;;;;10334704;28;20436;-84
2023/09/19 22:59:28;;;;;;;7.18;3.95;;;;;;;;;;10335167;28;20468;-84
2023/09/19 23:04:30;;;;;;;7.28;3.92;;;;;;;;;;10332302;28;20471;-84
2023/09/19 23:09:36;;;;;;;7.38;3.78;;;;;;;;;;10334573;28;20595;-84
2023/09/19 23:14:40;;;;;;;6.75;3.00;;;;;;;;;;10337276;28;20417;-84
2023/09/19 23:19:44;;;;;;;6.77;2.80;;;;;;;;;;10318526;23;20478;-84
2023/09/19 23:24:49;;;;;;;5.20;3.20;;;;;;;;;;10296425;28;20943;-84
2023/09/19 23:29:54;;;;;;;7.17;3.17;;;;;;;;;;10286837;28;20462;-84
2023/09/19 23:34:57;;;;;;;5.82;2.53;;;;;;;;;;10291835;28;20977;-84
2023/09/19 23:40:04;;;;;;;4.85;2.70;;;;;;;;;;10296036;28;20438;-84
2023/09/19 23:45:08;;;;;;;6.75;2.85;;;;;;;;;;10278572;28;20442;-84
2023/09/19 23:50:11;;;;;;;5.15;2.80;;;;;;;;;;10289338;28;20461;-84
2023/09/19 23:55:24;;;;;;;4.95;2.08;;;;;;;;;;10306490;28;20407;-85
